sensor_id;sensor_type;location;lat;lon;timestamp;P1;durP1;ratioP1;P2;durP2;ratioP2
15488;SDS011;7846;48.830;9.116;2023-04-15T00:00:54;5.83;;;3.50;;
15488;SDS011;7846;48.830;9.116;2023-04-15T00:03:20;6.13;;;3.60;;
15488;SDS011;7846;48.830;9.116;2023-04-15T00:05:45;6.83;;;3.50;;
15488;SDS011;7846;48.830;9.116;2023-04-15T00:08:11;4.77;;;2.90;;
15488;SDS011;7846;48.830;9.116;2023-04-15T00:10:37;6.10;;;3.43;;
15488;SDS011;7846;48.830;9.116;2023-04-15T00:13:02;4.83;;;3.57;;
15488;SDS011;7846;48.830;9.116;2023-04-15T00:15:28;4.27;;;3.20;;
15488;SDS011;7846;48.830;9.116;2023-04-15T00:17:53;9.97;;;3.33;;
15488;SDS011;7846;48.830;9.116;2023-04-15T00:20:20;5.10;;;3.50;;
15488;SDS011;7846;48.830;9.116;2023-04-15T00:22:46;5.43;;;3.10;;
15488;SDS011;7846;48.830;9.116;2023-04-15T00:25:12;7.67;;;3.67;;
15488;SDS011;7846;48.830;9.116;2023-04-15T00:27:39;5.77;;;3.67;;
15488;SDS011;7846;48.830;9.116;2023-04-15T00:30:05;8.37;;;3.43;;
15488;SDS011;7846;48.830;9.116;2023-04-15T00:32:32;5.10;;;3.33;;
15488;SDS011;7846;48.830;9.116;2023-04-15T00:34:58;6.03;;;3.50;;
15488;SDS011;7846;48.830;9.116;2023-04-15T00:37:23;4.73;;;3.17;;
15488;SDS011;7846;48.830;9.116;2023-04-15T00:39:49;5.90;;;3.30;;
15488;SDS011;7846;48.830;9.116;2023-04-15T00:42:14;6.33;;;3.60;;
15488;SDS011;7846;48.830;9.116;2023-04-15T00:44:40;6.90;;;4.00;;
15488;SDS011;7846;48.830;9.116;2023-04-15T00:47:06;7.67;;;3.57;;
15488;SDS011;7846;48.830;9.116;2023-04-15T00:49:32;5.20;;;3.43;;
15488;SDS011;7846;48.830;9.116;2023-04-15T00:52:00;4.47;;;3.30;;
15488;SDS011;7846;48.830;9.116;2023-04-15T00:54:25;7.53;;;3.40;;
15488;SDS011;7846;48.830;9.116;2023-04-15T00:56:51;5.53;;;3.40;;
15488;SDS011;7846;48.830;9.116;2023-04-15T00:59:17;5.20;;;3.30;;
15488;SDS011;7846;48.830;9.116;2023-04-15T01:01:44;3.73;;;3.10;;
15488;SDS011;7846;48.830;9.116;2023-04-15T01:04:10;6.03;;;3.70;;
15488;SDS011;7846;48.830;9.116;2023-04-15T01:06:37;4.30;;;2.90;;
15488;SDS011;7846;48.830;9.116;2023-04-15T01:09:03;7.87;;;3.20;;
15488;SDS011;7846;48.830;9.116;2023-04-15T01:11:29;7.50;;;3.60;;
15488;SDS011;7846;48.830;9.116;2023-04-15T01:13:57;6.50;;;3.43;;
15488;SDS011;7846;48.830;9.116;2023-04-15T01:16:23;5.33;;;3.33;;
15488;SDS011;7846;48.830;9.116;2023-04-15T01:18:48;4.60;;;3.33;;
15488;SDS011;7846;48.830;9.116;2023-04-15T01:21:14;5.33;;;3.10;;
15488;SDS011;7846;48.830;9.116;2023-04-15T01:23:40;7.37;;;3.40;;
15488;SDS011;7846;48.830;9.116;2023-04-15T01:26:11;5.60;;;3.20;;
15488;SDS011;7846;48.830;9.116;2023-04-15T01:28:37;4.87;;;3.30;;
15488;SDS011;7846;48.830;9.116;2023-04-15T01:31:12;5.83;;;3.10;;
15488;SDS011;7846;48.830;9.116;2023-04-15T01:33:39;5.33;;;3.30;;
15488;SDS011;7846;48.830;9.116;2023-04-15T01:36:07;7.77;;;3.57;;
15488;SDS011;7846;48.830;9.116;2023-04-15T01:38:34;4.93;;;3.40;;
15488;SDS011;7846;48.830;9.116;2023-04-15T01:41:00;8.73;;;3.47;;
15488;SDS011;7846;48.830;9.116;2023-04-15T01:43:25;6.17;;;3.23;;
15488;SDS011;7846;48.830;9.116;2023-04-15T01:45:51;6.37;;;3.30;;
15488;SDS011;7846;48.830;9.116;2023-04-15T01:48:16;6.90;;;3.40;;
15488;SDS011;7846;48.830;9.116;2023-04-15T01:50:42;4.87;;;3.13;;
15488;SDS011;7846;48.830;9.116;2023-04-15T01:53:07;4.60;;;3.43;;
15488;SDS011;7846;48.830;9.116;2023-04-15T01:55:33;7.80;;;3.70;;
15488;SDS011;7846;48.830;9.116;2023-04-15T01:57:59;5.00;;;3.30;;
15488;SDS011;7846;48.830;9.116;2023-04-15T02:00:25;4.27;;;3.30;;
15488;SDS011;7846;48.830;9.116;2023-04-15T02:02:52;6.57;;;3.47;;
15488;SDS011;7846;48.830;9.116;2023-04-15T02:05:18;4.40;;;3.20;;
15488;SDS011;7846;48.830;9.116;2023-04-15T02:07:44;5.50;;;3.40;;
15488;SDS011;7846;48.830;9.116;2023-04-15T02:10:10;4.60;;;3.17;;
15488;SDS011;7846;48.830;9.116;2023-04-15T02:12:37;5.50;;;3.10;;
15488;SDS011;7846;48.830;9.116;2023-04-15T02:15:03;5.40;;;3.20;;
15488;SDS011;7846;48.830;9.116;2023-04-15T02:17:29;5.37;;;2.83;;
15488;SDS011;7846;48.830;9.116;2023-04-15T02:19:54;3.47;;;3.10;;
15488;SDS011;7846;48.830;9.116;2023-04-15T02:22:23;5.40;;;3.30;;
15488;SDS011;7846;48.830;9.116;2023-04-15T02:24:50;7.90;;;3.90;;
15488;SDS011;7846;48.830;9.116;2023-04-15T02:27:16;6.63;;;4.00;;
15488;SDS011;7846;48.830;9.116;2023-04-15T02:29:45;6.50;;;3.70;;
15488;SDS011;7846;48.830;9.116;2023-04-15T02:32:11;11.20;;;3.80;;
15488;SDS011;7846;48.830;9.116;2023-04-15T02:34:38;6.53;;;3.20;;
15488;SDS011;7846;48.830;9.116;2023-04-15T02:37:06;4.67;;;3.17;;
15488;SDS011;7846;48.830;9.116;2023-04-15T02:39:36;4.47;;;3.10;;
15488;SDS011;7846;48.830;9.116;2023-04-15T02:42:02;3.73;;;2.90;;
15488;SDS011;7846;48.830;9.116;2023-04-15T02:44:27;3.80;;;2.87;;
15488;SDS011;7846;48.830;9.116;2023-04-15T02:46:54;8.03;;;3.13;;
15488;SDS011;7846;48.830;9.116;2023-04-15T02:49:20;6.60;;;3.27;;
15488;SDS011;7846;48.830;9.116;2023-04-15T02:51:46;7.23;;;3.23;;
15488;SDS011;7846;48.830;9.116;2023-04-15T02:54:14;7.37;;;3.13;;
15488;SDS011;7846;48.830;9.116;2023-04-15T02:56:40;5.80;;;3.20;;
15488;SDS011;7846;48.830;9.116;2023-04-15T02:59:05;7.03;;;3.93;;
15488;SDS011;7846;48.830;9.116;2023-04-15T03:01:32;4.27;;;3.20;;
15488;SDS011;7846;48.830;9.116;2023-04-15T03:03:57;4.87;;;3.20;;
15488;SDS011;7846;48.830;9.116;2023-04-15T03:06:22;6.60;;;3.10;;
15488;SDS011;7846;48.830;9.116;2023-04-15T03:08:49;4.50;;;2.90;;
15488;SDS011;7846;48.830;9.116;2023-04-15T03:11:14;4.60;;;3.10;;
15488;SDS011;7846;48.830;9.116;2023-04-15T03:13:40;6.67;;;3.03;;
15488;SDS011;7846;48.830;9.116;2023-04-15T03:16:07;4.00;;;3.10;;
15488;SDS011;7846;48.830;9.116;2023-04-15T03:18:33;9.20;;;3.30;;
15488;SDS011;7846;48.830;9.116;2023-04-15T03:20:58;6.33;;;3.00;;
15488;SDS011;7846;48.830;9.116;2023-04-15T03:23:23;5.73;;;3.50;;
15488;SDS011;7846;48.830;9.116;2023-04-15T03:25:50;4.77;;;3.07;;
15488;SDS011;7846;48.830;9.116;2023-04-15T03:28:15;4.10;;;3.30;;
15488;SDS011;7846;48.830;9.116;2023-04-15T03:30:41;4.20;;;3.00;;
15488;SDS011;7846;48.830;9.116;2023-04-15T03:33:06;4.73;;;3.17;;
15488;SDS011;7846;48.830;9.116;2023-04-15T03:35:32;4.50;;;3.17;;
15488;SDS011;7846;48.830;9.116;2023-04-15T03:37:59;5.13;;;3.43;;
15488;SDS011;7846;48.830;9.116;2023-04-15T03:40:25;6.83;;;3.13;;
15488;SDS011;7846;48.830;9.116;2023-04-15T03:42:51;4.70;;;3.50;;
15488;SDS011;7846;48.830;9.116;2023-04-15T03:45:16;5.57;;;3.47;;
15488;SDS011;7846;48.830;9.116;2023-04-15T03:47:42;4.80;;;3.70;;
15488;SDS011;7846;48.830;9.116;2023-04-15T03:50:08;6.67;;;3.57;;
15488;SDS011;7846;48.830;9.116;2023-04-15T03:52:35;5.13;;;3.00;;
15488;SDS011;7846;48.830;9.116;2023-04-15T03:55:00;5.20;;;3.60;;
15488;SDS011;7846;48.830;9.116;2023-04-15T03:57:26;7.20;;;3.93;;
15488;SDS011;7846;48.830;9.116;2023-04-15T03:59:51;5.80;;;3.93;;
15488;SDS011;7846;48.830;9.116;2023-04-15T04:02:17;3.80;;;3.30;;
15488;SDS011;7846;48.830;9.116;2023-04-15T04:04:42;9.13;;;3.67;;
15488;SDS011;7846;48.830;9.116;2023-04-15T04:07:07;5.67;;;3.73;;
15488;SDS011;7846;48.830;9.116;2023-04-15T04:09:34;7.23;;;4.30;;
15488;SDS011;7846;48.830;9.116;2023-04-15T04:12:00;5.23;;;4.00;;
15488;SDS011;7846;48.830;9.116;2023-04-15T04:14:27;6.33;;;3.87;;
15488;SDS011;7846;48.830;9.116;2023-04-15T04:16:54;7.17;;;3.90;;
15488;SDS011;7846;48.830;9.116;2023-04-15T04:19:22;5.67;;;4.17;;
15488;SDS011;7846;48.830;9.116;2023-04-15T04:21:48;6.27;;;4.43;;
15488;SDS011;7846;48.830;9.116;2023-04-15T04:24:13;7.77;;;4.10;;
15488;SDS011;7846;48.830;9.116;2023-04-15T04:26:39;7.20;;;4.23;;
15488;SDS011;7846;48.830;9.116;2023-04-15T04:29:06;5.60;;;4.43;;
15488;SDS011;7846;48.830;9.116;2023-04-15T04:31:34;5.23;;;4.00;;
15488;SDS011;7846;48.830;9.116;2023-04-15T04:33:59;6.03;;;4.07;;
15488;SDS011;7846;48.830;9.116;2023-04-15T04:36:25;4.70;;;3.73;;
15488;SDS011;7846;48.830;9.116;2023-04-15T04:38:50;8.43;;;4.13;;
15488;SDS011;7846;48.830;9.116;2023-04-15T04:41:16;4.33;;;3.70;;
15488;SDS011;7846;48.830;9.116;2023-04-15T04:43:43;4.10;;;3.60;;
15488;SDS011;7846;48.830;9.116;2023-04-15T04:46:09;6.77;;;3.30;;
15488;SDS011;7846;48.830;9.116;2023-04-15T04:48:34;5.93;;;3.60;;
15488;SDS011;7846;48.830;9.116;2023-04-15T04:50:59;4.83;;;3.67;;
15488;SDS011;7846;48.830;9.116;2023-04-15T04:53:25;5.07;;;3.50;;
15488;SDS011;7846;48.830;9.116;2023-04-15T04:55:52;4.37;;;3.40;;
15488;SDS011;7846;48.830;9.116;2023-04-15T04:58:17;5.90;;;3.60;;
15488;SDS011;7846;48.830;9.116;2023-04-15T05:00:42;4.87;;;3.43;;
15488;SDS011;7846;48.830;9.116;2023-04-15T05:03:08;5.63;;;3.20;;
15488;SDS011;7846;48.830;9.116;2023-04-15T05:05:34;4.10;;;3.30;;
15488;SDS011;7846;48.830;9.116;2023-04-15T05:08:01;5.20;;;3.50;;
15488;SDS011;7846;48.830;9.116;2023-04-15T05:10:26;6.53;;;3.40;;
15488;SDS011;7846;48.830;9.116;2023-04-15T05:12:52;4.63;;;3.30;;
15488;SDS011;7846;48.830;9.116;2023-04-15T05:15:17;8.37;;;3.30;;
15488;SDS011;7846;48.830;9.116;2023-04-15T05:17:42;7.70;;;3.20;;
15488;SDS011;7846;48.830;9.116;2023-04-15T05:20:09;4.87;;;3.30;;
15488;SDS011;7846;48.830;9.116;2023-04-15T05:22:35;5.57;;;3.53;;
15488;SDS011;7846;48.830;9.116;2023-04-15T05:25:01;4.97;;;3.23;;
15488;SDS011;7846;48.830;9.116;2023-04-15T05:27:27;8.13;;;3.40;;
15488;SDS011;7846;48.830;9.116;2023-04-15T05:29:52;5.23;;;3.60;;
15488;SDS011;7846;48.830;9.116;2023-04-15T05:32:17;6.93;;;3.07;;
15488;SDS011;7846;48.830;9.116;2023-04-15T05:34:44;7.70;;;3.27;;
15488;SDS011;7846;48.830;9.116;2023-04-15T05:37:09;5.67;;;2.87;;
15488;SDS011;7846;48.830;9.116;2023-04-15T05:39:34;4.90;;;3.17;;
15488;SDS011;7846;48.830;9.116;2023-04-15T05:42:00;5.07;;;3.37;;
15488;SDS011;7846;48.830;9.116;2023-04-15T05:44:26;9.77;;;3.73;;
15488;SDS011;7846;48.830;9.116;2023-04-15T05:46:51;5.07;;;3.10;;
15488;SDS011;7846;48.830;9.116;2023-04-15T05:49:17;4.70;;;3.30;;
15488;SDS011;7846;48.830;9.116;2023-04-15T05:51:42;6.43;;;3.30;;
15488;SDS011;7846;48.830;9.116;2023-04-15T05:54:08;5.07;;;3.00;;
15488;SDS011;7846;48.830;9.116;2023-04-15T05:56:34;4.80;;;3.27;;
15488;SDS011;7846;48.830;9.116;2023-04-15T05:59:00;6.97;;;3.47;;
15488;SDS011;7846;48.830;9.116;2023-04-15T06:01:27;4.07;;;2.90;;
15488;SDS011;7846;48.830;9.116;2023-04-15T06:03:54;4.97;;;3.20;;
15488;SDS011;7846;48.830;9.116;2023-04-15T06:06:21;4.87;;;3.10;;
15488;SDS011;7846;48.830;9.116;2023-04-15T06:08:47;5.43;;;3.40;;
15488;SDS011;7846;48.830;9.116;2023-04-15T06:11:13;5.07;;;3.33;;
15488;SDS011;7846;48.830;9.116;2023-04-15T06:13:39;5.57;;;3.00;;
15488;SDS011;7846;48.830;9.116;2023-04-15T06:16:06;6.40;;;3.13;;
15488;SDS011;7846;48.830;9.116;2023-04-15T06:18:31;4.60;;;3.10;;
15488;SDS011;7846;48.830;9.116;2023-04-15T06:20:57;8.97;;;3.17;;
15488;SDS011;7846;48.830;9.116;2023-04-15T06:23:24;5.10;;;3.20;;
15488;SDS011;7846;48.830;9.116;2023-04-15T06:25:51;5.37;;;3.63;;
15488;SDS011;7846;48.830;9.116;2023-04-15T06:28:16;5.70;;;3.03;;
15488;SDS011;7846;48.830;9.116;2023-04-15T06:30:43;7.97;;;3.40;;
15488;SDS011;7846;48.830;9.116;2023-04-15T06:33:09;5.60;;;3.50;;
15488;SDS011;7846;48.830;9.116;2023-04-15T06:35:34;5.77;;;3.47;;
15488;SDS011;7846;48.830;9.116;2023-04-15T06:38:00;10.57;;;3.70;;
15488;SDS011;7846;48.830;9.116;2023-04-15T06:40:26;4.73;;;3.50;;
15488;SDS011;7846;48.830;9.116;2023-04-15T06:42:53;3.93;;;3.50;;
15488;SDS011;7846;48.830;9.116;2023-04-15T06:45:20;7.00;;;3.20;;
15488;SDS011;7846;48.830;9.116;2023-04-15T06:47:47;7.70;;;3.43;;
15488;SDS011;7846;48.830;9.116;2023-04-15T06:50:14;5.20;;;3.50;;
15488;SDS011;7846;48.830;9.116;2023-04-15T06:52:39;4.97;;;3.27;;
15488;SDS011;7846;48.830;9.116;2023-04-15T06:55:05;5.23;;;3.20;;
15488;SDS011;7846;48.830;9.116;2023-04-15T06:57:31;6.00;;;3.30;;
15488;SDS011;7846;48.830;9.116;2023-04-15T06:59:57;4.60;;;3.47;;
15488;SDS011;7846;48.830;9.116;2023-04-15T07:02:22;5.10;;;3.50;;
15488;SDS011;7846;48.830;9.116;2023-04-15T07:04:49;6.83;;;3.50;;
15488;SDS011;7846;48.830;9.116;2023-04-15T07:07:15;6.40;;;3.33;;
15488;SDS011;7846;48.830;9.116;2023-04-15T07:09:41;6.63;;;3.53;;
15488;SDS011;7846;48.830;9.116;2023-04-15T07:12:06;5.43;;;3.60;;
15488;SDS011;7846;48.830;9.116;2023-04-15T07:14:33;7.03;;;3.40;;
15488;SDS011;7846;48.830;9.116;2023-04-15T07:16:58;7.57;;;3.37;;
15488;SDS011;7846;48.830;9.116;2023-04-15T07:19:24;6.43;;;2.80;;
15488;SDS011;7846;48.830;9.116;2023-04-15T07:21:51;7.87;;;2.80;;
15488;SDS011;7846;48.830;9.116;2023-04-15T07:24:16;4.63;;;2.87;;
15488;SDS011;7846;48.830;9.116;2023-04-15T07:26:45;3.20;;;2.53;;
15488;SDS011;7846;48.830;9.116;2023-04-15T07:29:10;5.47;;;2.90;;
15488;SDS011;7846;48.830;9.116;2023-04-15T07:31:36;7.67;;;2.80;;
15488;SDS011;7846;48.830;9.116;2023-04-15T07:34:02;4.73;;;2.63;;
15488;SDS011;7846;48.830;9.116;2023-04-15T07:36:29;3.60;;;2.77;;
15488;SDS011;7846;48.830;9.116;2023-04-15T07:38:55;4.00;;;2.40;;
15488;SDS011;7846;48.830;9.116;2023-04-15T07:41:22;4.67;;;2.80;;
15488;SDS011;7846;48.830;9.116;2023-04-15T07:43:48;4.23;;;2.73;;
15488;SDS011;7846;48.830;9.116;2023-04-15T07:46:14;4.13;;;2.90;;
15488;SDS011;7846;48.830;9.116;2023-04-15T07:48:41;5.10;;;2.77;;
15488;SDS011;7846;48.830;9.116;2023-04-15T07:51:06;6.73;;;2.97;;
15488;SDS011;7846;48.830;9.116;2023-04-15T07:53:32;3.73;;;2.43;;
15488;SDS011;7846;48.830;9.116;2023-04-15T07:55:59;4.53;;;2.27;;
15488;SDS011;7846;48.830;9.116;2023-04-15T07:58:25;4.80;;;2.40;;
15488;SDS011;7846;48.830;9.116;2023-04-15T08:00:51;3.70;;;2.37;;
15488;SDS011;7846;48.830;9.116;2023-04-15T08:03:16;3.23;;;2.20;;
15488;SDS011;7846;48.830;9.116;2023-04-15T08:05:42;5.33;;;2.60;;
15488;SDS011;7846;48.830;9.116;2023-04-15T08:08:07;5.20;;;2.50;;
15488;SDS011;7846;48.830;9.116;2023-04-15T08:10:33;4.63;;;2.50;;
15488;SDS011;7846;48.830;9.116;2023-04-15T08:12:59;3.30;;;2.43;;
15488;SDS011;7846;48.830;9.116;2023-04-15T08:15:25;3.47;;;2.33;;
15488;SDS011;7846;48.830;9.116;2023-04-15T08:17:50;5.70;;;2.47;;
15488;SDS011;7846;48.830;9.116;2023-04-15T08:20:16;4.20;;;2.23;;
15488;SDS011;7846;48.830;9.116;2023-04-15T08:22:41;3.93;;;2.23;;
15488;SDS011;7846;48.830;9.116;2023-04-15T08:25:07;5.27;;;2.00;;
15488;SDS011;7846;48.830;9.116;2023-04-15T08:27:33;7.93;;;2.73;;
15488;SDS011;7846;48.830;9.116;2023-04-15T08:29:58;3.50;;;2.10;;
15488;SDS011;7846;48.830;9.116;2023-04-15T08:32:24;2.53;;;1.87;;
15488;SDS011;7846;48.830;9.116;2023-04-15T08:34:50;4.30;;;1.93;;
15488;SDS011;7846;48.830;9.116;2023-04-15T08:37:17;6.50;;;2.70;;
15488;SDS011;7846;48.830;9.116;2023-04-15T08:39:43;2.93;;;2.00;;
15488;SDS011;7846;48.830;9.116;2023-04-15T08:42:15;4.77;;;2.20;;
15488;SDS011;7846;48.830;9.116;2023-04-15T08:44:42;4.27;;;2.20;;
15488;SDS011;7846;48.830;9.116;2023-04-15T08:47:08;4.43;;;2.50;;
15488;SDS011;7846;48.830;9.116;2023-04-15T08:49:40;4.83;;;2.30;;
15488;SDS011;7846;48.830;9.116;2023-04-15T08:52:07;4.80;;;2.00;;
15488;SDS011;7846;48.830;9.116;2023-04-15T08:54:34;2.30;;;2.03;;
15488;SDS011;7846;48.830;9.116;2023-04-15T08:57:02;5.03;;;2.03;;
15488;SDS011;7846;48.830;9.116;2023-04-15T08:59:31;4.40;;;2.03;;
15488;SDS011;7846;48.830;9.116;2023-04-15T09:01:57;4.23;;;2.17;;
15488;SDS011;7846;48.830;9.116;2023-04-15T09:04:24;2.57;;;2.20;;
15488;SDS011;7846;48.830;9.116;2023-04-15T09:06:49;3.43;;;2.20;;
15488;SDS011;7846;48.830;9.116;2023-04-15T09:09:18;4.30;;;2.40;;
15488;SDS011;7846;48.830;9.116;2023-04-15T09:11:43;5.43;;;2.27;;
15488;SDS011;7846;48.830;9.116;2023-04-15T09:14:08;3.47;;;2.30;;
15488;SDS011;7846;48.830;9.116;2023-04-15T09:19:23;4.20;;;2.33;;
15488;SDS011;7846;48.830;9.116;2023-04-15T09:21:52;2.80;;;1.83;;
15488;SDS011;7846;48.830;9.116;2023-04-15T09:24:18;2.67;;;2.00;;
15488;SDS011;7846;48.830;9.116;2023-04-15T09:26:44;3.97;;;2.13;;
15488;SDS011;7846;48.830;9.116;2023-04-15T09:29:12;2.70;;;1.40;;
15488;SDS011;7846;48.830;9.116;2023-04-15T09:31:38;2.63;;;2.00;;
15488;SDS011;7846;48.830;9.116;2023-04-15T09:34:05;2.10;;;1.87;;
15488;SDS011;7846;48.830;9.116;2023-04-15T09:36:40;4.17;;;2.20;;
15488;SDS011;7846;48.830;9.116;2023-04-15T09:39:16;3.23;;;2.17;;
15488;SDS011;7846;48.830;9.116;2023-04-15T09:41:42;2.40;;;2.07;;
15488;SDS011;7846;48.830;9.116;2023-04-15T09:44:21;3.47;;;2.30;;
15488;SDS011;7846;48.830;9.116;2023-04-15T09:46:50;5.60;;;2.60;;
15488;SDS011;7846;48.830;9.116;2023-04-15T09:49:16;3.63;;;2.50;;
15488;SDS011;7846;48.830;9.116;2023-04-15T09:51:42;3.97;;;2.27;;
15488;SDS011;7846;48.830;9.116;2023-04-15T09:54:10;3.70;;;2.20;;
15488;SDS011;7846;48.830;9.116;2023-04-15T09:56:37;3.00;;;2.00;;
15488;SDS011;7846;48.830;9.116;2023-04-15T09:59:07;2.93;;;2.37;;
15488;SDS011;7846;48.830;9.116;2023-04-15T10:01:34;2.67;;;2.30;;
15488;SDS011;7846;48.830;9.116;2023-04-15T10:04:02;4.03;;;2.30;;
15488;SDS011;7846;48.830;9.116;2023-04-15T10:06:28;2.17;;;1.60;;
15488;SDS011;7846;48.830;9.116;2023-04-15T10:08:56;1.77;;;1.50;;
15488;SDS011;7846;48.830;9.116;2023-04-15T10:11:23;6.23;;;2.13;;
15488;SDS011;7846;48.830;9.116;2023-04-15T10:13:49;4.17;;;2.37;;
15488;SDS011;7846;48.830;9.116;2023-04-15T10:16:16;3.70;;;2.30;;
15488;SDS011;7846;48.830;9.116;2023-04-15T10:18:46;2.97;;;2.30;;
15488;SDS011;7846;48.830;9.116;2023-04-15T10:21:15;2.90;;;2.20;;
15488;SDS011;7846;48.830;9.116;2023-04-15T10:23:45;4.70;;;2.63;;
15488;SDS011;7846;48.830;9.116;2023-04-15T10:26:11;3.80;;;2.50;;
15488;SDS011;7846;48.830;9.116;2023-04-15T10:28:39;4.93;;;2.60;;
15488;SDS011;7846;48.830;9.116;2023-04-15T10:31:04;4.17;;;2.73;;
15488;SDS011;7846;48.830;9.116;2023-04-15T10:33:31;4.43;;;2.40;;
15488;SDS011;7846;48.830;9.116;2023-04-15T10:35:58;3.37;;;2.37;;
15488;SDS011;7846;48.830;9.116;2023-04-15T10:38:37;5.47;;;2.80;;
15488;SDS011;7846;48.830;9.116;2023-04-15T10:41:22;2.60;;;2.37;;
15488;SDS011;7846;48.830;9.116;2023-04-15T10:43:56;2.80;;;2.30;;
15488;SDS011;7846;48.830;9.116;2023-04-15T10:46:35;2.50;;;2.30;;
15488;SDS011;7846;48.830;9.116;2023-04-15T10:49:08;3.90;;;2.17;;
15488;SDS011;7846;48.830;9.116;2023-04-15T10:51:52;3.90;;;2.07;;
15488;SDS011;7846;48.830;9.116;2023-04-15T10:59:35;4.70;;;2.27;;
15488;SDS011;7846;48.830;9.116;2023-04-15T11:02:05;4.57;;;2.40;;
15488;SDS011;7846;48.830;9.116;2023-04-15T11:07:37;3.23;;;2.53;;
15488;SDS011;7846;48.830;9.116;2023-04-15T11:12:39;3.10;;;1.83;;
15488;SDS011;7846;48.830;9.116;2023-04-15T11:17:50;3.37;;;1.90;;
15488;SDS011;7846;48.830;9.116;2023-04-15T11:20:16;4.20;;;2.60;;
15488;SDS011;7846;48.830;9.116;2023-04-15T11:22:54;3.40;;;2.70;;
15488;SDS011;7846;48.830;9.116;2023-04-15T11:25:29;3.27;;;2.13;;
15488;SDS011;7846;48.830;9.116;2023-04-15T11:27:57;3.00;;;2.27;;
15488;SDS011;7846;48.830;9.116;2023-04-15T11:30:24;4.80;;;2.53;;
15488;SDS011;7846;48.830;9.116;2023-04-15T11:32:51;3.50;;;2.30;;
15488;SDS011;7846;48.830;9.116;2023-04-15T11:35:18;3.10;;;2.13;;
15488;SDS011;7846;48.830;9.116;2023-04-15T11:37:44;5.60;;;2.60;;
15488;SDS011;7846;48.830;9.116;2023-04-15T11:40:11;4.83;;;2.70;;
15488;SDS011;7846;48.830;9.116;2023-04-15T11:42:39;3.00;;;2.30;;
15488;SDS011;7846;48.830;9.116;2023-04-15T11:45:08;3.73;;;2.30;;
15488;SDS011;7846;48.830;9.116;2023-04-15T11:47:35;3.03;;;2.10;;
15488;SDS011;7846;48.830;9.116;2023-04-15T11:50:14;3.43;;;2.90;;
15488;SDS011;7846;48.830;9.116;2023-04-15T11:55:18;3.03;;;2.73;;
15488;SDS011;7846;48.830;9.116;2023-04-15T11:57:43;2.90;;;2.63;;
15488;SDS011;7846;48.830;9.116;2023-04-15T12:00:09;2.13;;;1.97;;
15488;SDS011;7846;48.830;9.116;2023-04-15T12:02:38;3.97;;;2.60;;
15488;SDS011;7846;48.830;9.116;2023-04-15T12:05:09;4.60;;;2.60;;
15488;SDS011;7846;48.830;9.116;2023-04-15T12:10:36;1.60;;;1.30;;
15488;SDS011;7846;48.830;9.116;2023-04-15T12:13:05;3.60;;;2.20;;
15488;SDS011;7846;48.830;9.116;2023-04-15T12:15:31;2.73;;;2.03;;
15488;SDS011;7846;48.830;9.116;2023-04-15T12:17:57;2.57;;;2.37;;
15488;SDS011;7846;48.830;9.116;2023-04-15T12:20:25;5.00;;;2.50;;
15488;SDS011;7846;48.830;9.116;2023-04-15T12:22:51;4.30;;;2.40;;
15488;SDS011;7846;48.830;9.116;2023-04-15T12:25:17;3.60;;;2.03;;
15488;SDS011;7846;48.830;9.116;2023-04-15T12:27:49;4.07;;;2.23;;
15488;SDS011;7846;48.830;9.116;2023-04-15T12:30:17;2.87;;;2.17;;
15488;SDS011;7846;48.830;9.116;2023-04-15T12:32:42;4.97;;;2.97;;
15488;SDS011;7846;48.830;9.116;2023-04-15T12:35:10;3.53;;;2.60;;
15488;SDS011;7846;48.830;9.116;2023-04-15T12:37:36;3.83;;;3.23;;
15488;SDS011;7846;48.830;9.116;2023-04-15T12:40:02;3.67;;;2.60;;
15488;SDS011;7846;48.830;9.116;2023-04-15T12:42:32;2.93;;;2.43;;
15488;SDS011;7846;48.830;9.116;2023-04-15T12:44:57;3.13;;;2.57;;
15488;SDS011;7846;48.830;9.116;2023-04-15T12:47:23;2.97;;;2.30;;
15488;SDS011;7846;48.830;9.116;2023-04-15T12:49:48;3.93;;;2.63;;
15488;SDS011;7846;48.830;9.116;2023-04-15T12:52:13;2.53;;;2.10;;
15488;SDS011;7846;48.830;9.116;2023-04-15T12:54:40;3.23;;;2.57;;
15488;SDS011;7846;48.830;9.116;2023-04-15T12:57:05;3.40;;;1.90;;
15488;SDS011;7846;48.830;9.116;2023-04-15T12:59:32;2.93;;;1.80;;
15488;SDS011;7846;48.830;9.116;2023-04-15T13:01:58;3.47;;;2.00;;
15488;SDS011;7846;48.830;9.116;2023-04-15T13:04:34;2.30;;;2.10;;
15488;SDS011;7846;48.830;9.116;2023-04-15T13:07:00;2.43;;;2.20;;
15488;SDS011;7846;48.830;9.116;2023-04-15T13:09:26;2.43;;;2.00;;
15488;SDS011;7846;48.830;9.116;2023-04-15T13:11:52;2.93;;;1.90;;
15488;SDS011;7846;48.830;9.116;2023-04-15T13:14:18;7.97;;;2.67;;
15488;SDS011;7846;48.830;9.116;2023-04-15T13:16:43;2.67;;;1.90;;
15488;SDS011;7846;48.830;9.116;2023-04-15T13:19:10;3.53;;;2.10;;
15488;SDS011;7846;48.830;9.116;2023-04-15T13:21:36;2.07;;;1.80;;
15488;SDS011;7846;48.830;9.116;2023-04-15T13:24:02;2.57;;;1.80;;
15488;SDS011;7846;48.830;9.116;2023-04-15T13:26:29;1.67;;;1.37;;
15488;SDS011;7846;48.830;9.116;2023-04-15T13:28:55;1.30;;;1.20;;
15488;SDS011;7846;48.830;9.116;2023-04-15T13:31:20;3.37;;;1.43;;
15488;SDS011;7846;48.830;9.116;2023-04-15T13:33:46;2.43;;;1.30;;
15488;SDS011;7846;48.830;9.116;2023-04-15T13:36:12;1.27;;;1.20;;
15488;SDS011;7846;48.830;9.116;2023-04-15T13:38:38;1.47;;;1.17;;
15488;SDS011;7846;48.830;9.116;2023-04-15T13:41:05;2.00;;;1.10;;
15488;SDS011;7846;48.830;9.116;2023-04-15T13:43:32;1.07;;;1.07;;
15488;SDS011;7846;48.830;9.116;2023-04-15T13:45:59;1.97;;;1.10;;
15488;SDS011;7846;48.830;9.116;2023-04-15T13:48:24;1.63;;;1.33;;
15488;SDS011;7846;48.830;9.116;2023-04-15T13:50:49;2.30;;;1.30;;
15488;SDS011;7846;48.830;9.116;2023-04-15T13:53:20;1.77;;;1.10;;
15488;SDS011;7846;48.830;9.116;2023-04-15T13:55:45;2.10;;;1.10;;
15488;SDS011;7846;48.830;9.116;2023-04-15T13:58:12;1.40;;;1.10;;
15488;SDS011;7846;48.830;9.116;2023-04-15T14:00:37;1.20;;;1.10;;
15488;SDS011;7846;48.830;9.116;2023-04-15T14:03:03;1.13;;;0.90;;
15488;SDS011;7846;48.830;9.116;2023-04-15T14:05:30;1.33;;;0.90;;
15488;SDS011;7846;48.830;9.116;2023-04-15T14:07:56;2.63;;;1.20;;
15488;SDS011;7846;48.830;9.116;2023-04-15T14:10:23;0.93;;;0.90;;
15488;SDS011;7846;48.830;9.116;2023-04-15T14:12:49;2.60;;;1.03;;
15488;SDS011;7846;48.830;9.116;2023-04-15T14:15:14;1.97;;;1.20;;
15488;SDS011;7846;48.830;9.116;2023-04-15T14:17:40;2.10;;;1.33;;
15488;SDS011;7846;48.830;9.116;2023-04-15T14:20:06;1.50;;;1.30;;
15488;SDS011;7846;48.830;9.116;2023-04-15T14:22:33;1.53;;;1.20;;
15488;SDS011;7846;48.830;9.116;2023-04-15T14:24:59;0.90;;;0.90;;
15488;SDS011;7846;48.830;9.116;2023-04-15T14:27:24;2.53;;;1.07;;
15488;SDS011;7846;48.830;9.116;2023-04-15T14:29:52;1.30;;;1.20;;
15488;SDS011;7846;48.830;9.116;2023-04-15T14:32:18;1.27;;;1.20;;
15488;SDS011;7846;48.830;9.116;2023-04-15T14:34:44;1.37;;;0.80;;
15488;SDS011;7846;48.830;9.116;2023-04-15T14:37:10;2.93;;;1.07;;
15488;SDS011;7846;48.830;9.116;2023-04-15T14:39:36;0.77;;;0.77;;
15488;SDS011;7846;48.830;9.116;2023-04-15T14:42:03;1.27;;;1.00;;
15488;SDS011;7846;48.830;9.116;2023-04-15T14:44:29;1.03;;;0.90;;
15488;SDS011;7846;48.830;9.116;2023-04-15T14:46:54;1.83;;;1.07;;
15488;SDS011;7846;48.830;9.116;2023-04-15T14:49:20;1.53;;;1.43;;
15488;SDS011;7846;48.830;9.116;2023-04-15T14:51:45;1.33;;;1.23;;
15488;SDS011;7846;48.830;9.116;2023-04-15T14:54:12;1.53;;;1.40;;
15488;SDS011;7846;48.830;9.116;2023-04-15T14:56:37;4.17;;;1.57;;
15488;SDS011;7846;48.830;9.116;2023-04-15T14:59:02;1.37;;;1.27;;
15488;SDS011;7846;48.830;9.116;2023-04-15T15:01:33;1.40;;;1.30;;
15488;SDS011;7846;48.830;9.116;2023-04-15T15:03:58;1.70;;;1.53;;
15488;SDS011;7846;48.830;9.116;2023-04-15T15:06:24;1.27;;;1.20;;
15488;SDS011;7846;48.830;9.116;2023-04-15T15:08:49;2.37;;;1.63;;
15488;SDS011;7846;48.830;9.116;2023-04-15T15:11:16;2.33;;;1.33;;
15488;SDS011;7846;48.830;9.116;2023-04-15T15:13:41;2.03;;;1.40;;
15488;SDS011;7846;48.830;9.116;2023-04-15T15:16:07;1.77;;;1.50;;
15488;SDS011;7846;48.830;9.116;2023-04-15T15:18:33;3.20;;;1.40;;